Data for 05/17/2013

Time Sea-Level Adjusted Pressure Absolute Pressure Temperature Relative Humidity Dew Point   
(mb) (inHg) (mb) (inHg) (C) (F) (%) (C) (F)
00:05 1015 29.97 844 24.92 8 46.4 89 6.3 43.3
00:10 1015 29.97 844 24.92 8 46.5 88 6.2 43.2
00:15 1015 29.97 844 24.92 8.1 46.5 88 6.3 43.3
00:20 1015 29.97 844 24.92 8.1 46.5 88 6.1 43
00:25 1015 29.97 844 24.92 8.1 46.5 88 6.1 43.1
00:30 1015 29.97 844 24.92 8.1 46.6 88 6.3 43.3
00:35 1015 29.97 844 24.92 8.1 46.5 88 6.2 43.2
00:40 1015 29.97 844 24.92 8.1 46.6 90 6.6 43.9
00:45 1015 29.97 844 24.92 8.1 46.5 91 6.7 44
00:50 1015 29.97 844 24.92 8.1 46.5 90 6.6 43.9
00:55 1015 29.97 844 24.92 8.1 46.5 91 6.7 44.1
01:00 1015 29.97 844 24.92 8 46.5 91 6.6 43.8
01:05 1015 29.97 844 24.92 7.9 46.3 91 6.6 43.8
01:10 1015 29.97 844 24.92 7.9 46.2 91 6.5 43.7
01:15 1015 29.97 844 24.92 7.9 46.1 92 6.6 43.8
01:20 1015 29.97 844 24.92 7.8 46.1 91 6.5 43.7
01:25 1015 29.97 844 24.92 7.9 46.2 91 6.6 43.8
01:30 1015 29.97 844 24.92 7.9 46.3 91 6.6 43.9
01:35 1015 29.97 844 24.92 7.9 46.2 91 6.6 43.8
01:40 1015 29.97 844 24.92 7.9 46.1 91 6.6 43.8
01:45 1015 29.97 844 24.92 7.9 46.2 91 6.6 43.9
01:50 1015 29.97 844 24.92 7.9 46.3 92 6.7 44
01:55 1015 29.97 844 24.92 7.9 46.3 92 6.7 44
02:00 1015 29.97 844 24.92 7.9 46.2 92 6.7 44
02:05 1015 29.97 844 24.92 7.8 46.1 91 6.4 43.5
02:10 1015 29.97 844 24.92 7.8 46 90 6.3 43.3
02:15 1015 29.97 844 24.92 7.8 46.1 91 6.4 43.6
02:20 1014 29.94 844 24.92 7.7 45.9 92 6.4 43.6
02:25 1014 29.94 844 24.92 7.6 45.7 92 6.4 43.5
02:30 1014 29.94 844 24.92 7.6 45.7 92 6.3 43.4
02:35 1014 29.94 844 24.92 7.5 45.6 92 6.3 43.3
02:40 1014 29.94 844 24.92 7.5 45.6 92 6.3 43.4
02:45 1014 29.94 844 24.92 7.6 45.7 92 6.3 43.4
02:50 1014 29.94 844 24.92 7.6 45.8 92 6.4 43.5
02:55 1014 29.94 843 24.89 7.5 45.5 92 6.3 43.4
03:00 1014 29.94 844 24.92 7.5 45.5 93 6.4 43.5
03:05 1014 29.94 843 24.89 7.5 45.5 93 6.4 43.5
03:10 1014 29.94 843 24.89 7.4 45.3 93 6.3 43.3
03:15 1014 29.94 843 24.89 7.4 45.3 93 6.3 43.4
03:20 1014 29.94 843 24.89 7.4 45.4 92 6.3 43.3
03:25 1014 29.94 843 24.89 7.5 45.4 92 6.2 43.2
03:30 1014 29.94 843 24.89 7.5 45.5 92 6.2 43.2
03:35 1014 29.94 843 24.89 7.5 45.5 91 6.1 43
03:40 1014 29.94 843 24.89 7.5 45.6 90 6.1 42.9
03:45 1014 29.94 843 24.89 7.5 45.6 89 5.9 42.7
03:50 1014 29.94 843 24.89 7.6 45.7 89 6 42.7
03:55 1014 29.94 843 24.89 7.7 45.8 88 5.7 42.3
04:00 1014 29.94 843 24.89 7.8 46 87 5.7 42.3
04:05 1014 29.94 843 24.89 7.8 46.1 85 5.5 41.9
04:10 1014 29.94 843 24.89 8 46.3 84 5.4 41.7
04:15 1014 29.94 843 24.89 8.1 46.5 87 6 42.7
04:20 1014 29.94 843 24.89 8 46.4 86 5.9 42.6
04:25 1014 29.94 843 24.89 7.9 46.2 85 5.6 42.1
04:30 1014 29.94 843 24.89 7.9 46.2 87 5.9 42.7
04:35 1014 29.94 843 24.89 7.8 46 90 6.2 43.2
04:40 1014 29.94 843 24.89 7.7 45.8 91 6.3 43.3
04:45 1014 29.94 843 24.89 7.6 45.7 92 6.3 43.4
04:50 1014 29.94 843 24.89 7.7 45.8 92 6.5 43.6
04:55 1014 29.94 843 24.89 7.7 45.9 92 6.5 43.7
05:00 1014 29.94 843 24.89 7.8 46 92 6.5 43.8
05:05 1014 29.94 843 24.89 7.8 46 93 6.7 44.1
05:10 1014 29.94 843 24.89 7.7 45.9 93 6.7 44
05:15 1014 29.94 843 24.89 7.7 45.8 93 6.7 44
05:20 1014 29.94 843 24.89 7.7 45.9 93 6.7 44.1
05:25 1014 29.94 843 24.89 7.7 45.8 93 6.6 43.9
05:30 1014 29.94 843 24.89 7.7 45.8 93 6.6 43.8
05:35 1014 29.94 843 24.89 7.7 45.9 93 6.6 43.9
05:40 1014 29.94 843 24.89 7.7 45.9 93 6.7 44
05:45 1014 29.94 843 24.89 7.8 46 92 6.6 43.9
05:50 1014 29.94 843 24.89 7.9 46.1 91 6.5 43.7
05:55 1014 29.94 844 24.92 8.1 46.5 91 6.6 43.9
06:00 1014 29.94 844 24.92 8.3 47 89 6.7 44
06:05 1014 29.94 843 24.89 8.4 47.1 88 6.6 43.9
06:10 1014 29.94 843 24.89 8.5 47.2 89 6.8 44.2
06:15 1014 29.94 843 24.89 8.6 47.5 88 6.8 44.2
06:20 1014 29.94 843 24.89 8.5 47.3 90 6.9 44.4
06:25 1014 29.94 844 24.92 8.5 47.3 87 6.5 43.7
06:30 1014 29.94 844 24.92 8.6 47.6 86 6.4 43.5
06:35 1014 29.94 844 24.92 9 48.1 86 6.7 44.1
06:40 1014 29.94 844 24.92 9.2 48.5 85 6.7 44.1
06:45 1014 29.94 844 24.92 8.9 48 85 6.6 43.9
06:50 1014 29.94 844 24.92 9 48.1 85 6.5 43.7
06:55 1014 29.94 844 24.92 8.9 48 86 6.7 44.1
07:00 1014 29.94 844 24.92 8.9 48 85 6.5 43.8
07:05 1014 29.94 844 24.92 8.7 47.7 87 6.7 44
07:10 1014 29.94 844 24.92 8.7 47.6 87 6.6 44
07:15 1014 29.94 844 24.92 8.9 47.9 87 6.8 44.2
07:20 1014 29.94 844 24.92 9.2 48.6 86 7.1 44.7
07:25 1014 29.94 844 24.92 9.7 49.5 84 7.2 44.9
07:30 1014 29.94 844 24.92 9.9 49.7 81 6.8 44.2
07:35 1014 29.94 843 24.89 9.7 49.4 82 6.8 44.3
07:40 1014 29.94 843 24.89 9.6 49.3 80 6.4 43.6
07:45 1014 29.94 843 24.89 9.6 49.3 79 6.1 43
07:50 1014 29.94 843 24.89 9.6 49.3 80 6.3 43.3
07:55 1014 29.94 843 24.89 9.6 49.2 79 6.1 42.9
08:00 1014 29.94 843 24.89 9.6 49.3 81 6.5 43.7
08:05 1014 29.94 843 24.89 9.8 49.6 80 6.5 43.8
08:10 1014 29.94 843 24.89 10 50 77 6.2 43.1
08:15 1014 29.94 843 24.89 9.9 49.8 77 6.1 42.9
08:20 1014 29.94 843 24.89 9.8 49.7 77 6 42.9
08:25 1014 29.94 843 24.89 10 49.9 79 6.4 43.5
08:30 1014 29.94 843 24.89 10.3 50.6 76 6.3 43.3
08:35 1014 29.94 843 24.89 10.5 51 74 6.1 43
08:40 1014 29.94 843 24.89 10.3 50.6 75 6.1 42.9
08:45 1014 29.94 843 24.89 10.2 50.4 74 5.8 42.5
08:50 1014 29.94 843 24.89 10.3 50.5 74 5.9 42.7
08:55 1014 29.94 843 24.89 10.4 50.7 75 6.3 43.3
09:00 1014 29.94 843 24.89 10.4 50.8 75 6.2 43.2
09:05 1014 29.94 843 24.89 10.2 50.3 79 6.7 44.1
09:10 1014 29.94 843 24.89 10.3 50.5 76 6.2 43.2
09:15 1014 29.94 843 24.89 10.4 50.7 76 6.4 43.5
09:20 1014 29.94 843 24.89 10.6 51.1 74 6.2 43.1
09:25 1014 29.94 843 24.89 10.8 51.4 70 5.5 42
09:30 1014 29.94 843 24.89 11 51.8 70 5.7 42.2
09:35 1014 29.94 843 24.89 11.4 52.5 68 5.8 42.4
09:40 1014 29.94 843 24.89 11.4 52.6 64 4.9 40.8
09:45 1014 29.94 843 24.89 11.6 52.9 60 4.2 39.6
09:50 1014 29.94 843 24.89 11.3 52.3 63 4.5 40.1
09:55 1014 29.94 843 24.89 11.4 52.5 62 4.4 39.9
10:00 1014 29.94 843 24.89 11.4 52.5 61 4.1 39.4
10:05 1014 29.94 843 24.89 11.5 52.7 60 4.1 39.3
10:10 1014 29.94 843 24.89 11.7 53.1 59 3.9 39.1
10:15 1014 29.94 843 24.89 12 53.5 60 4.4 39.9
10:20 1014 29.94 843 24.89 12.1 53.7 57 3.8 38.8
10:25 1014 29.94 843 24.89 12.3 54.1 57 4 39.2
10:30 1014 29.94 843 24.89 12.5 54.6 57 4.3 39.8
10:35 1014 29.94 843 24.89 13.2 55.8 55 4.4 39.9
10:40 1014 29.94 843 24.89 13.1 55.6 56 4.6 40.3
10:45 1014 29.94 843 24.89 13 55.3 57 4.7 40.4
10:50 1014 29.94 843 24.89 12.9 55.3 57 4.6 40.3
10:55 1013 29.91 843 24.89 13.3 55.9 55 4.5 40.2
11:00 1013 29.91 843 24.89 13.2 55.8 56 4.8 40.6
11:05 1013 29.91 843 24.89 13.2 55.8 57 4.9 40.8
11:10 1013 29.91 842 24.86 13.6 56.6 54 4.7 40.5
11:15 1013 29.91 843 24.89 13.6 56.5 52 4 39.2
11:20 1013 29.91 842 24.86 13.6 56.5 53 4.4 39.9
11:25 1013 29.91 842 24.86 14 57.1 54 4.9 40.8
11:30 1013 29.91 842 24.86 14.3 57.7 52 4.5 40.2
11:35 1013 29.91 842 24.86 14.4 58 50 4.4 39.9
11:40 1013 29.91 842 24.86 13.9 57.1 55 5 41.1
11:45 1013 29.91 842 24.86 14.2 57.6 49 3.7 38.7
11:50 1013 29.91 842 24.86 14.2 57.6 50 4 39.2
11:55 1013 29.91 842 24.86 14.1 57.4 51 4.2 39.6
12:00 1013 29.91 842 24.86 14.6 58.2 49 4.1 39.5
12:05 1013 29.91 842 24.86 14.7 58.5 50 4.5 40.1
12:10 1013 29.91 842 24.86 14.9 58.8 49 4.3 39.7
12:15 1013 29.91 842 24.86 14.8 58.7 51 4.7 40.5
12:20 1013 29.91 842 24.86 14.5 58.1 52 4.8 40.6
12:25 1013 29.91 842 24.86 13.9 56.9 53 4.6 40.3
12:30 1013 29.91 842 24.86 14 57.3 52 4.5 40.1
12:35 1013 29.91 842 24.86 14.2 57.6 53 4.9 40.7
12:40 1013 29.91 842 24.86 13.9 57 55 5 41
12:45 1013 29.91 842 24.86 13.8 56.8 56 5.1 41.2
12:50 1013 29.91 842 24.86 13.6 56.4 56 5.1 41.2
12:55 1013 29.91 842 24.86 13.7 56.6 57 5.4 41.8
13:00 1013 29.91 842 24.86 13.3 55.9 58 5.4 41.6
13:05 1013 29.91 842 24.86 12.8 55 61 5.4 41.7
13:10 1013 29.91 842 24.86 12.6 54.7 61 5.3 41.5
13:15 1013 29.91 842 24.86 12.4 54.4 65 6 42.8
13:20 1013 29.91 842 24.86 12.1 53.9 67 6.3 43.4
13:25 1013 29.91 842 24.86 11.7 53 75 7.4 45.4
13:30 1013 29.91 842 24.86 11.3 52.3 78 7.5 45.6
13:35 1013 29.91 842 24.86 11 51.8 76 7 44.5
13:40 1013 29.91 842 24.86 10.9 51.6 77 7 44.6
13:45 1013 29.91 842 24.86 10.9 51.7 76 7 44.5
13:50 1013 29.91 842 24.86 11 51.9 77 7.3 45.1
13:55 1013 29.91 842 24.86 11.2 52.1 75 6.8 44.3
14:00 1013 29.91 842 24.86 11.3 52.3 78 7.6 45.7
14:05 1013 29.91 843 24.89 11.5 52.6 74 7.1 44.7
14:10 1013 29.91 843 24.89 11.6 52.8 74 7.1 44.8
14:15 1013 29.91 843 24.89 11.6 53 74 7.1 44.8
14:20 1013 29.91 842 24.86 11.8 53.2 73 7.1 44.7
14:25 1013 29.91 842 24.86 12.1 53.7 75 7.8 46.1
14:30 1013 29.91 842 24.86 12.6 54.6 72 7.7 45.8
14:35 1013 29.91 842 24.86 12.3 54.1 73 7.6 45.7
14:40 1013 29.91 843 24.89 12.1 53.7 72 7.1 44.8
14:45 1013 29.91 843 24.89 12.1 53.7 71 7.1 44.7
14:50 1013 29.91 842 24.86 12.1 53.7 71 7.1 44.7
14:55 1013 29.91 842 24.86 12.2 54 72 7.3 45.2
15:00 1013 29.91 842 24.86 12.4 54.2 72 7.4 45.3
15:05 1013 29.91 842 24.86 12.5 54.6 71 7.5 45.5
15:10 1013 29.91 842 24.86 12.3 54.2 71 7.3 45.1
15:15 1013 29.91 842 24.86 12.1 53.7 75 7.7 45.9
15:20 1013 29.91 842 24.86 12.1 53.7 77 8.2 46.7
15:25 1013 29.91 842 24.86 11.9 53.5 77 8.1 46.6
15:30 1013 29.91 842 24.86 12 53.5 74 7.5 45.5
15:35 1013 29.91 842 24.86 11.9 53.5 74 7.4 45.3
15:40 1013 29.91 842 24.86 12 53.6 72 7.2 44.9
15:45 1013 29.91 842 24.86 12.1 53.8 71 7 44.6
15:50 1013 29.91 842 24.86 12.2 53.9 70 6.9 44.4
15:55 1013 29.91 842 24.86 12.2 54 69 6.8 44.3
16:00 1013 29.91 842 24.86 12.1 53.8 71 7.1 44.8
16:05 1013 29.91 842 24.86 12 53.6 72 7.1 44.8
16:10 1013 29.91 842 24.86 12.1 53.9 73 7.5 45.6
16:15 1013 29.91 842 24.86 12.1 53.7 75 7.8 46.1
16:20 1013 29.91 842 24.86 11.9 53.5 75 7.7 45.9
16:25 1013 29.91 842 24.86 11.8 53.3 78 8.2 46.7
16:30 1013 29.91 842 24.86 11.8 53.3 75 7.6 45.8
16:35 1013 29.91 842 24.86 11.7 53.1 78 8 46.4
16:40 1013 29.91 842 24.86 11.6 52.9 80 8.3 47
16:45 1013 29.91 842 24.86 11.3 52.3 86 9 48.2
16:50 1013 29.91 842 24.86 10.9 51.7 87 8.8 47.9
16:55 1014 29.94 843 24.89 10.9 51.7 88 9.1 48.3
17:00 1014 29.94 843 24.89 11 51.7 87 9 48.1
17:05 1014 29.94 843 24.89 10.1 50.3 89 8.5 47.2
17:10 1014 29.94 843 24.89 9.4 49 90 7.9 46.1
17:15 1014 29.94 843 24.89 9 48.2 90 7.5 45.5
17:20 1014 29.94 843 24.89 8.9 47.9 91 7.5 45.4
17:25 1014 29.94 843 24.89 8.8 47.9 91 7.5 45.5
17:30 1014 29.94 843 24.89 8.8 47.9 90 7.3 45.2
17:35 1014 29.94 843 24.89 8.9 48 91 7.5 45.5
17:40 1014 29.94 843 24.89 9.1 48.4 90 7.6 45.6
17:45 1014 29.94 843 24.89 9.1 48.3 91 7.7 45.8
17:50 1014 29.94 843 24.89 9.1 48.3 89 7.3 45.1
17:55 1014 29.94 843 24.89 9.2 48.5 88 7.2 45
18:00 1014 29.94 844 24.92 9.3 48.7 87 7.2 45
18:05 1014 29.94 844 24.92 9.3 48.7 87 7.2 45
18:10 1014 29.94 844 24.92 9.3 48.7 87 7.2 44.9
18:15 1014 29.94 844 24.92 9.2 48.6 86 7.1 44.8
18:20 1015 29.97 844 24.92 9.2 48.6 88 7.3 45.2
18:25 1015 29.97 844 24.92 9.2 48.5 87 7.2 45
18:30 1015 29.97 844 24.92 9.2 48.5 88 7.4 45.3
18:35 1014 29.94 844 24.92 9.2 48.5 88 7.3 45.2
18:40 1015 29.97 844 24.92 9 48.1 90 7.3 45.2
18:45 1015 29.97 844 24.92 8.8 47.9 91 7.4 45.4
18:50 1015 29.97 844 24.92 8.7 47.6 89 7 44.7
18:55 1015 29.97 844 24.92 8.6 47.4 90 7.1 44.7
19:00 1015 29.97 844 24.92 8.5 47.3 91 7.1 44.8
19:05 1015 29.97 844 24.92 8.4 47.2 91 7.1 44.8
19:10 1015 29.97 844 24.92 8.5 47.3 91 7.1 44.7
19:15 1015 29.97 844 24.92 8.5 47.2 90 6.9 44.4
19:20 1015 29.97 844 24.92 8.5 47.2 89 6.7 44.1
19:25 1015 29.97 844 24.92 8.6 47.5 88 6.8 44.2
19:30 1015 29.97 844 24.92 8.5 47.4 89 6.8 44.3
19:35 1015 29.97 844 24.92 8.5 47.2 88 6.6 44
19:40 1015 29.97 844 24.92 8.4 47.1 90 6.9 44.4
19:45 1015 29.97 844 24.92 8.5 47.2 90 6.9 44.5
19:50 1015 29.97 844 24.92 8.4 47 90 6.9 44.3
19:55 1015 29.97 844 24.92 8.3 47 90 6.7 44.1
20:00 1015 29.97 845 24.95 8.2 46.8 90 6.7 44.1
20:05 1015 29.97 845 24.95 8.2 46.8 90 6.6 44
20:10 1016 30 845 24.95 8.2 46.8 90 6.6 43.9
20:15 1016 30 845 24.95 8.3 46.9 89 6.6 43.8
20:20 1016 30 845 24.95 8.3 46.9 88 6.4 43.4
20:25 1016 30 845 24.95 8.4 47.1 87 6.3 43.4
20:30 1016 30 845 24.95 8.5 47.2 86 6.3 43.3
20:35 1016 30 845 24.95 8.5 47.2 86 6.3 43.3
20:40 1016 30 845 24.95 8.5 47.3 86 6.3 43.4
20:45 1016 30 845 24.95 8.5 47.3 86 6.3 43.3
20:50 1016 30 845 24.95 8.6 47.4 86 6.4 43.6
20:55 1016 30 845 24.95 8.6 47.4 87 6.5 43.7
21:00 1016 30 845 24.95 8.5 47.4 87 6.5 43.8
21:05 1016 30 845 24.95 8.5 47.4 88 6.6 44
21:10 1016 30 845 24.95 8.5 47.3 89 6.8 44.3
21:15 1016 30 845 24.95 8.4 47.2 90 6.8 44.3
21:20 1016 30 845 24.95 8.4 47.2 90 6.9 44.4
21:25 1016 30 845 24.95 8.4 47.1 90 6.9 44.3
21:30 1016 30 845 24.95 8.3 47 91 6.9 44.4
21:35 1016 30 845 24.95 8.3 46.9 91 6.8 44.3
21:40 1016 30 845 24.95 8.2 46.8 91 6.7 44.1
21:45 1016 30 845 24.95 8.2 46.7 91 6.7 44.1
21:50 1016 30 845 24.95 8.2 46.7 91 6.8 44.3
21:55 1016 30 845 24.95 8.2 46.7 90 6.7 44.1
22:00 1016 30 845 24.95 8.2 46.7 90 6.7 44
22:05 1016 30 845 24.95 8.2 46.8 90 6.6 43.9
22:10 1016 30 845 24.95 8.2 46.8 89 6.6 43.8
22:15 1016 30 845 24.95 8.2 46.8 89 6.5 43.8
22:20 1016 30 845 24.95 8.2 46.8 89 6.6 43.9
22:25 1016 30 845 24.95 8.2 46.8 89 6.5 43.6
22:30 1016 30 845 24.95 8.2 46.8 89 6.5 43.7
22:35 1016 30 845 24.95 8.3 46.9 89 6.6 43.8
22:40 1016 30 845 24.95 8.2 46.8 90 6.7 44
22:45 1016 30 845 24.95 8.2 46.8 91 6.9 44.4
22:50 1016 30 845 24.95 8.1 46.6 92 6.9 44.4
22:55 1016 30 845 24.95 8 46.4 92 6.9 44.3
23:00 1016 30 845 24.95 8 46.3 93 6.9 44.4
23:05 1016 30 845 24.95 8 46.3 93 6.9 44.5
23:10 1016 30 845 24.95 7.9 46.2 93 6.8 44.3
23:15 1016 30 845 24.95 7.9 46.2 93 6.9 44.4
23:20 1016 30 845 24.95 8 46.3 93 7 44.5
23:25 1016 30 845 24.95 8 46.4 94 7 44.7
23:30 1016 30 845 24.95 8 46.4 94 7.1 44.7
23:35 1016 30 845 24.95 8 46.4 94 7.1 44.8
23:40 1016 30 845 24.95 8 46.4 94 7.1 44.7
23:45 1016 30 845 24.95 8 46.3 94 7.1 44.7
23:50 1016 30 845 24.95 8 46.4 94 7.1 44.7
23:55 1016 30 845 24.95 8.1 46.5 94 7.1 44.7
24:00 1016 30 845 24.95 8 46.3 93 7 44.6